Time;durP1;ratioP1;P1;durP2;ratioP2;P2;SDS_P1;SDS_P2;PMS_P1;PMS_P2;Temp;Humidity;BMP_temperature;BMP_pressure;BME280_temperature;BME280_humidity;BME280_pressure;Samples;Min_cycle;Max_cycle;Signal;HPM_P1;HPM_P2
2022/05/28 00:01:18;;;;;;;4.20;2.60;;;;;;;9.02;78.45;99221.75;5103146;28;20038;-69
2022/05/28 00:03:45;;;;;;;6.82;2.70;;;;;;;9.02;79.30;99216.56;5103051;28;20029;-69
2022/05/28 00:06:16;;;;;;;7.90;2.65;;;;;;;9.02;79.85;99212.25;5103006;28;20016;-69
2022/05/28 00:08:42;;;;;;;8.13;2.30;;;;;;;8.95;80.32;99202.03;5103124;28;20031;-68
2022/05/28 00:11:24;;;;;;;8.50;2.95;;;;;;;9.00;80.70;99214.00;5102900;28;20401;-68
2022/05/28 00:13:50;;;;;;;4.95;2.38;;;;;;;8.99;80.82;99220.09;5103751;28;20345;-68
2022/05/28 00:16:17;;;;;;;8.35;3.00;;;;;;;8.93;81.45;99213.28;5103320;28;20545;-68
2022/05/28 00:18:43;;;;;;;4.75;2.60;;;;;;;8.91;81.51;99216.81;5103105;28;20040;-68
2022/05/28 00:21:09;;;;;;;6.20;3.50;;;;;;;8.91;82.22;99219.38;5103376;28;20020;-68
2022/05/28 00:23:36;;;;;;;10.20;3.20;;;;;;;8.96;82.22;99227.06;5103049;28;20080;-68
2022/05/28 00:26:03;;;;;;;11.45;3.42;;;;;;;9.01;82.60;99230.41;5103161;28;20568;-68
2022/05/28 00:28:29;;;;;;;9.25;3.17;;;;;;;9.02;82.67;99230.38;5106514;28;20038;-66
2022/05/28 00:30:54;;;;;;;5.05;2.50;;;;;;;8.99;83.19;99225.25;5107249;28;20024;-66
2022/05/28 00:33:20;;;;;;;5.25;2.95;;;;;;;8.99;83.29;99232.16;5106906;28;20031;-65
2022/05/28 00:35:45;;;;;;;7.65;2.40;;;;;;;8.91;83.69;99214.22;5088763;28;20035;-66
2022/05/28 00:38:10;;;;;;;5.90;2.58;;;;;;;8.89;83.94;99226.31;5107200;28;20027;-65
2022/05/28 00:40:36;;;;;;;6.97;2.80;;;;;;;8.92;84.21;99227.13;5106979;28;20560;-65
2022/05/28 00:43:04;;;;;;;4.82;2.80;;;;;;;8.93;84.30;99230.53;5106899;28;20019;-64
2022/05/28 00:45:31;;;;;;;4.15;2.20;;;;;;;8.92;84.39;99229.72;5106771;28;20047;-65
2022/05/28 00:47:59;;;;;;;13.52;2.55;;;;;;;8.93;84.69;99230.53;5106542;28;20031;-65
2022/05/28 00:50:25;;;;;;;7.22;3.08;;;;;;;8.87;84.83;99223.75;5106603;28;20051;-65
2022/05/28 00:52:52;;;;;;;5.68;2.83;;;;;;;8.90;85.03;99230.59;5106444;28;20028;-64
2022/05/28 00:55:17;;;;;;;8.48;2.80;;;;;;;8.91;85.10;99240.09;5106571;28;20050;-64
2022/05/28 00:57:44;;;;;;;8.07;2.33;;;;;;;8.92;84.98;99240.06;5106809;28;20024;-66
2022/05/28 01:00:19;;;;;;;4.93;2.55;;;;;;;8.93;85.37;99239.16;5106534;28;20028;-65
2022/05/28 01:02:51;;;;;;;10.35;2.50;;;;;;;8.93;85.37;99236.56;5106343;28;20020;-66
2022/05/28 01:05:48;;;;;;;6.50;2.72;;;;;;;8.95;85.43;99248.63;5106575;28;20030;-66
2022/05/28 01:08:18;;;;;;;5.78;2.60;;;;;;;8.93;85.46;99249.53;5106287;28;20012;-65
2022/05/28 01:10:57;;;;;;;5.88;2.30;;;;;;;8.91;85.65;99240.09;5106660;28;20351;-66
2022/05/28 01:13:46;;;;;;;4.95;2.28;;;;;;;8.85;85.96;99256.59;5106285;28;20012;-64
2022/05/28 01:16:22;;;;;;;3.92;2.72;;;;;;;8.76;85.94;99241.25;5106356;28;20112;-64
2022/05/28 01:18:54;;;;;;;5.75;2.72;;;;;;;8.82;85.97;99254.06;5106249;28;20028;-64
2022/05/28 01:21:27;;;;;;;3.03;2.42;;;;;;;8.75;86.09;99262.84;5106716;28;20012;-65
2022/05/28 01:24:31;;;;;;;4.10;1.80;;;;;;;8.73;86.43;99262.00;5106280;28;20024;-65
2022/05/28 01:27:02;;;;;;;4.55;2.25;;;;;;;8.73;86.26;99260.28;5085683;28;20036;-65
2022/05/28 01:29:45;;;;;;;5.07;2.17;;;;;;;8.72;86.48;99265.47;5106120;28;20028;-65
2022/05/28 01:32:12;;;;;;;3.13;2.15;;;;;;;8.72;86.60;99270.66;5088176;28;20031;-63
2022/05/28 01:34:40;;;;;;;4.07;2.08;;;;;;;8.71;86.63;99276.69;5105614;28;20024;-63
2022/05/28 01:37:06;;;;;;;4.82;2.15;;;;;;;8.70;86.92;99275.88;5105951;28;20024;-63
2022/05/28 01:39:33;;;;;;;8.15;2.63;;;;;;;8.73;86.68;99280.97;5105182;28;20031;-64
2022/05/28 01:41:59;;;;;;;3.60;2.03;;;;;;;8.75;86.89;99286.13;5105716;28;20089;-63
2022/05/28 01:44:26;;;;;;;3.33;2.10;;;;;;;8.79;86.87;99282.59;5105724;28;20027;-62
2022/05/28 01:46:53;;;;;;;4.20;2.47;;;;;;;8.76;86.83;99272.28;5105777;28;20024;-63
2022/05/28 01:49:20;;;;;;;3.35;1.55;;;;;;;8.80;86.73;99287.72;5105452;28;20031;-62
2022/05/28 01:51:53;;;;;;;5.78;1.90;;;;;;;8.77;86.71;99290.38;5105385;28;20151;-63
2022/05/28 01:54:24;;;;;;;3.67;1.92;;;;;;;8.70;86.50;99288.81;5105333;28;20584;-63
2022/05/28 01:56:52;;;;;;;3.60;2.13;;;;;;;8.70;86.73;99295.69;5105661;28;20032;-64
2022/05/28 01:59:22;;;;;;;3.25;2.00;;;;;;;8.73;86.83;99301.69;5105285;28;20124;-62
2022/05/28 02:01:48;;;;;;;2.42;1.85;;;;;;;8.71;86.81;99302.56;5105432;28;20016;-62
2022/05/28 02:04:13;;;;;;;2.83;1.60;;;;;;;8.71;86.53;99305.16;5104958;28;20316;-64
2022/05/28 02:06:40;;;;;;;4.50;2.05;;;;;;;8.66;86.59;99303.53;5105441;28;20024;-63
2022/05/28 02:09:10;;;;;;;2.30;1.65;;;;;;;8.68;86.33;99301.78;5105042;28;20016;-63
2022/05/28 02:12:01;;;;;;;3.92;2.22;;;;;;;8.70;86.65;99309.50;5105389;28;20336;-63
2022/05/28 02:14:51;;;;;;;3.25;1.85;;;;;;;8.70;86.46;99313.81;5002696;28;20130;-62
2022/05/28 02:17:36;;;;;;;3.28;1.20;;;;;;;8.68;86.41;99311.25;5002878;28;20026;-62
2022/05/28 02:20:22;;;;;;;3.92;1.80;;;;;;;8.67;86.38;99320.75;5002570;28;20042;-62
2022/05/28 02:23:14;;;;;;;2.92;1.92;;;;;;;8.63;86.44;99319.09;5002424;28;20030;-62
2022/05/28 02:26:05;;;;;;;3.87;1.70;;;;;;;8.64;86.02;99325.97;5002454;28;20039;-63
2022/05/28 02:28:33;;;;;;;2.05;1.52;;;;;;;8.58;86.38;99320.09;5002328;28;20038;-63
2022/05/28 02:31:08;;;;;;;3.88;1.33;;;;;;;8.55;86.19;99318.38;5002272;28;20038;-63
2022/05/28 02:33:34;;;;;;;1.48;1.27;;;;;;;8.54;85.92;99329.59;5002317;28;20112;-63
2022/05/28 02:36:00;;;;;;;2.55;1.50;;;;;;;8.50;85.94;99331.38;5002380;28;20041;-63
2022/05/28 02:38:25;;;;;;;2.80;1.35;;;;;;;8.48;86.05;99333.13;5002128;28;20042;-62
2022/05/28 02:40:54;;;;;;;1.92;1.40;;;;;;;8.45;85.60;99325.41;5002421;28;20027;-63
2022/05/28 02:43:21;;;;;;;2.50;1.58;;;;;;;8.45;85.59;99329.75;5002132;28;20126;-63
2022/05/28 02:45:46;;;;;;;2.78;1.35;;;;;;;8.45;85.65;99333.16;5002089;28;20038;-63
2022/05/28 02:48:12;;;;;;;1.98;1.25;;;;;;;8.51;85.67;99334.81;4985708;28;20030;-62
2022/05/28 02:50:37;;;;;;;4.47;1.10;;;;;;;8.53;85.51;99328.72;5017828;28;20051;-63
2022/05/28 02:53:03;;;;;;;1.98;1.30;;;;;;;8.60;85.38;99333.81;5104236;28;20115;-63
2022/05/28 02:55:28;;;;;;;1.77;1.10;;;;;;;8.62;84.90;99335.53;5104506;28;20020;-63
2022/05/28 02:57:53;;;;;;;1.65;1.20;;;;;;;8.64;84.80;99331.16;5104422;28;20467;-63
2022/05/28 03:00:19;;;;;;;1.42;1.05;;;;;;;8.69;84.48;99341.41;5104228;28;20016;-63
2022/05/28 03:02:45;;;;;;;1.33;1.00;;;;;;;8.69;84.31;99328.47;5104146;28;20077;-63
2022/05/28 03:05:13;;;;;;;1.48;1.05;;;;;;;8.75;84.28;99330.13;5104070;28;20024;-63
2022/05/28 03:07:38;;;;;;;1.65;1.00;;;;;;;8.78;83.59;99322.28;5104116;28;20032;-63
2022/05/28 03:10:04;;;;;;;1.40;0.90;;;;;;;8.79;82.54;99324.84;5103926;28;20031;-63
2022/05/28 03:12:29;;;;;;;1.10;0.85;;;;;;;8.81;82.32;99322.25;5103965;28;20032;-62
2022/05/28 03:14:55;;;;;;;1.42;0.80;;;;;;;8.80;81.46;99317.97;5103961;28;20027;-63
2022/05/28 03:17:20;;;;;;;2.28;0.90;;;;;;;8.79;80.88;99311.06;5104004;28;20082;-63
2022/05/28 03:19:45;;;;;;;2.50;1.00;;;;;;;8.85;80.52;99329.06;5103942;28;20081;-63
2022/05/28 03:22:10;;;;;;;7.68;1.10;;;;;;;8.90;80.70;99326.38;5103809;28;20043;-62
2022/05/28 03:24:36;;;;;;;1.60;0.93;;;;;;;9.00;81.05;99340.00;5103909;28;20434;-63
2022/05/28 03:27:01;;;;;;;2.95;0.90;;;;;;;9.05;81.27;99330.41;5103773;28;20076;-63
2022/05/28 03:29:27;;;;;;;1.70;0.85;;;;;;;9.14;80.81;99332.81;5103654;28;20589;-63
2022/05/28 03:31:52;;;;;;;1.30;0.95;;;;;;;9.16;80.37;99328.47;5103535;28;20016;-64
2022/05/28 03:34:17;;;;;;;1.75;0.88;;;;;;;9.26;80.77;99341.22;5103364;28;20511;-63
2022/05/28 03:36:43;;;;;;;5.78;1.00;;;;;;;9.36;80.39;99332.38;5103873;28;20016;-63
2022/05/28 03:39:09;;;;;;;3.83;0.88;;;;;;;9.52;80.26;99335.50;5103508;28;20020;-65
2022/05/28 03:41:34;;;;;;;1.70;0.73;;;;;;;9.62;80.27;99333.56;5103705;28;20051;-63
2022/05/28 03:43:59;;;;;;;3.97;0.95;;;;;;;9.63;79.24;99335.25;5103514;28;20134;-63
2022/05/28 03:46:28;;;;;;;1.83;0.95;;;;;;;9.66;78.13;99336.97;5103726;28;20018;-63
2022/05/28 03:48:59;;;;;;;1.10;0.70;;;;;;;9.82;76.76;99341.78;5103244;28;20020;-63
2022/05/28 03:51:25;;;;;;;1.95;1.25;;;;;;;9.95;75.98;99343.22;5103234;28;20095;-63
2022/05/28 03:53:50;;;;;;;1.30;0.80;;;;;;;10.05;73.96;99343.84;5103507;28;20020;-63
2022/05/28 03:56:16;;;;;;;1.52;0.75;;;;;;;10.06;72.40;99353.34;5103356;28;20075;-64
2022/05/28 03:58:42;;;;;;;1.77;0.80;;;;;;;10.09;73.96;99348.09;5103350;28;20020;-63
2022/05/28 04:01:07;;;;;;;1.58;0.80;;;;;;;10.22;73.71;99355.56;5103241;28;20503;-63
2022/05/28 04:03:35;;;;;;;1.90;0.80;;;;;;;10.49;74.60;99346.31;5102891;28;20078;-63
2022/05/28 04:06:01;;;;;;;1.15;0.73;;;;;;;10.80;73.45;99347.22;5103294;28;20109;-62
2022/05/28 04:08:27;;;;;;;1.38;1.27;;;;;;;11.30;73.85;99353.69;5103359;28;20024;-63
2022/05/28 04:10:52;;;;;;;2.25;0.80;;;;;;;11.73;72.61;99363.72;5103311;28;20016;-63
2022/05/28 04:13:18;;;;;;;2.05;0.75;;;;;;;12.12;71.74;99360.81;5103306;28;20016;-63
2022/05/28 04:15:43;;;;;;;0.60;0.60;;;;;;;12.54;72.51;99366.41;5103276;28;20026;-64
2022/05/28 04:18:08;;;;;;;2.33;0.88;;;;;;;12.79;69.79;99367.34;5103111;28;20034;-63
2022/05/28 04:20:34;;;;;;;2.28;0.80;;;;;;;12.89;70.04;99366.97;5103294;28;20020;-63
2022/05/28 04:23:00;;;;;;;1.10;0.70;;;;;;;12.98;66.68;99378.84;5103068;28;20077;-64
2022/05/28 04:25:25;;;;;;;1.02;0.70;;;;;;;12.84;65.48;99373.25;5103035;28;20020;-63
2022/05/28 04:27:51;;;;;;;3.42;0.73;;;;;;;12.72;65.88;99374.50;5103191;28;20075;-63
2022/05/28 04:30:16;;;;;;;1.95;0.65;;;;;;;12.33;62.93;99381.00;5102911;28;20510;-64
2022/05/28 04:32:42;;;;;;;2.33;1.13;;;;;;;11.92;64.29;99373.56;5103187;28;20024;-64
2022/05/28 04:35:08;;;;;;;0.98;0.63;;;;;;;11.60;64.56;99391.81;5102840;28;20028;-63
2022/05/28 04:37:33;;;;;;;1.10;0.70;;;;;;;11.32;65.68;99390.88;5103314;28;20294;-64
2022/05/28 04:39:59;;;;;;;1.30;0.70;;;;;;;11.10;65.50;99394.03;5103082;28;20220;-63
2022/05/28 04:42:24;;;;;;;1.60;0.82;;;;;;;10.91;65.79;99389.34;5102969;28;20111;-64
2022/05/28 04:44:50;;;;;;;2.67;0.80;;;;;;;10.77;66.56;99399.22;5102651;28;20028;-64
2022/05/28 04:47:15;;;;;;;0.90;0.70;;;;;;;10.65;67.17;99398.66;5102654;28;20028;-63
2022/05/28 04:49:40;;;;;;;1.55;0.80;;;;;;;10.49;66.64;99418.97;5102197;28;20028;-64
2022/05/28 04:52:06;;;;;;;1.10;0.88;;;;;;;10.39;66.68;99417.44;5102519;28;20028;-64
2022/05/28 04:54:31;;;;;;;1.95;0.70;;;;;;;10.18;67.25;99409.25;5102253;28;20020;-64
2022/05/28 04:56:57;;;;;;;0.80;0.80;;;;;;;10.09;67.85;99418.13;5102456;28;20459;-64
2022/05/28 04:59:22;;;;;;;1.48;0.93;;;;;;;10.02;67.82;99422.56;5102268;28;20049;-63
2022/05/28 05:01:47;;;;;;;3.45;0.80;;;;;;;9.96;67.95;99427.03;5102208;28;20378;-63
2022/05/28 05:04:12;;;;;;;1.67;1.05;;;;;;;9.83;68.19;99419.53;5102194;28;20024;-63
2022/05/28 05:06:38;;;;;;;0.70;0.60;;;;;;;9.73;68.38;99425.81;5102302;28;20527;-63
2022/05/28 05:09:03;;;;;;;1.38;0.77;;;;;;;9.60;68.84;99438.16;5102322;28;20189;-63
2022/05/28 05:11:29;;;;;;;2.38;0.90;;;;;;;9.51;69.48;99442.63;5102301;28;20044;-63
2022/05/28 05:13:54;;;;;;;1.48;0.80;;;;;;;9.52;70.03;99427.94;5102796;28;20038;-63
2022/05/28 05:16:20;;;;;;;1.13;0.73;;;;;;;9.57;69.96;99446.00;5105796;28;20028;-63
2022/05/28 05:18:45;;;;;;;1.58;0.60;;;;;;;9.62;70.03;99447.59;5105381;28;20118;-63
2022/05/28 05:21:14;;;;;;;0.90;0.70;;;;;;;9.64;70.01;99432.00;5105817;28;20054;-63
2022/05/28 05:23:40;;;;;;;1.40;1.00;;;;;;;9.59;70.13;99431.25;5105693;28;20138;-63
2022/05/28 05:26:11;;;;;;;1.33;0.65;;;;;;;9.57;70.62;99446.81;5105690;28;20028;-64
2022/05/28 05:28:36;;;;;;;0.70;0.70;;;;;;;9.68;70.96;99446.59;5105656;28;20024;-64
2022/05/28 05:31:01;;;;;;;2.00;0.80;;;;;;;9.89;70.99;99450.50;5105535;28;20016;-64
2022/05/28 05:33:26;;;;;;;1.48;0.70;;;;;;;10.04;70.20;99446.75;5086990;28;20097;-63
2022/05/28 05:35:52;;;;;;;0.90;0.60;;;;;;;10.10;69.91;99456.13;5105840;28;20016;-63
2022/05/28 05:38:17;;;;;;;3.17;0.77;;;;;;;10.20;69.84;99443.81;5105509;28;20500;-63
2022/05/28 05:40:42;;;;;;;0.65;0.60;;;;;;;10.26;69.05;99446.25;5105442;28;20012;-64
2022/05/28 05:43:08;;;;;;;1.33;0.85;;;;;;;10.38;69.41;99463.25;5105273;28;20108;-63
2022/05/28 05:45:33;;;;;;;1.40;0.70;;;;;;;10.59;68.95;99457.66;5105377;28;20126;-63
2022/05/28 05:47:59;;;;;;;1.05;0.70;;;;;;;10.74;68.69;99462.47;5104962;28;20024;-62
2022/05/28 05:50:24;;;;;;;4.03;0.95;;;;;;;11.01;68.41;99459.22;5105062;28;20044;-63
2022/05/28 05:52:49;;;;;;;0.77;0.60;;;;;;;11.34;66.48;99461.81;5104958;28;20023;-63
2022/05/28 05:55:15;;;;;;;1.55;0.60;;;;;;;11.61;66.16;99455.94;5105090;28;20027;-63
2022/05/28 05:57:41;;;;;;;0.60;0.60;;;;;;;11.90;65.68;99462.88;5105246;28;20043;-63
2022/05/28 06:00:07;;;;;;;0.60;0.60;;;;;;;11.98;63.02;99472.22;5105001;28;20016;-63
2022/05/28 06:02:33;;;;;;;0.88;0.80;;;;;;;12.03;63.95;99462.50;5105058;28;20381;-63
2022/05/28 06:04:58;;;;;;;1.15;1.05;;;;;;;12.08;62.71;99458.06;5104819;28;20108;-63
2022/05/28 06:07:25;;;;;;;1.15;0.85;;;;;;;11.95;62.19;99472.31;5105015;28;20028;-63
2022/05/28 06:09:50;;;;;;;3.53;1.10;;;;;;;11.71;61.85;99472.13;5104730;28;20024;-63
2022/05/28 06:12:16;;;;;;;1.05;0.90;;;;;;;11.46;62.45;99471.06;5105022;28;20432;-63
2022/05/28 06:14:41;;;;;;;2.47;0.73;;;;;;;11.23;62.65;99474.28;5104708;28;20071;-62
2022/05/28 06:17:06;;;;;;;0.93;0.70;;;;;;;11.09;63.05;99472.88;5104800;28;20088;-63
2022/05/28 06:19:32;;;;;;;0.75;0.60;;;;;;;11.00;63.23;99483.50;5104498;28;20024;-63
2022/05/28 06:21:59;;;;;;;0.85;0.52;;;;;;;10.90;63.18;99482.88;5104718;28;20055;-64
2022/05/28 06:24:24;;;;;;;0.90;0.65;;;;;;;10.96;63.30;99497.47;5104156;28;20020;-63
2022/05/28 06:26:49;;;;;;;0.82;0.60;;;;;;;10.94;63.46;99486.25;5104433;28;20039;-63
2022/05/28 06:29:15;;;;;;;0.65;0.55;;;;;;;11.01;62.66;99486.06;5104549;28;20024;-63
2022/05/28 06:31:40;;;;;;;1.13;0.60;;;;;;;11.08;62.91;99498.88;5104309;28;20030;-63
2022/05/28 06:34:05;;;;;;;1.65;0.70;;;;;;;11.27;62.73;99483.69;5104141;28;20541;-63
2022/05/28 06:36:31;;;;;;;0.93;0.65;;;;;;;11.52;62.12;99486.47;5104587;28;20032;-63
2022/05/28 06:38:56;;;;;;;1.38;0.63;;;;;;;11.71;61.36;99496.34;5085799;28;20020;-63
2022/05/28 06:41:21;;;;;;;0.90;0.60;;;;;;;11.99;60.70;99485.19;5085840;28;20020;-63
2022/05/28 06:43:47;;;;;;;2.15;0.65;;;;;;;12.25;59.84;99501.78;5104090;28;20024;-63
2022/05/28 06:46:12;;;;;;;0.80;0.60;;;;;;;12.57;59.28;99493.88;5104184;28;20036;-63
2022/05/28 06:48:38;;;;;;;0.95;0.60;;;;;;;12.87;58.46;99501.66;5103956;28;20076;-64
2022/05/28 06:51:06;;;;;;;3.25;0.60;;;;;;;12.97;58.10;99498.72;5103851;28;20187;-63
2022/05/28 06:53:37;;;;;;;0.63;0.50;;;;;;;13.10;56.58;99501.78;5103846;28;20016;-64
2022/05/28 06:56:04;;;;;;;1.05;0.70;;;;;;;13.08;55.90;99499.19;5103943;28;20020;-63
2022/05/28 06:58:29;;;;;;;1.38;0.60;;;;;;;13.12;55.90;99499.97;5104143;28;20106;-63
2022/05/28 07:00:55;;;;;;;0.57;0.57;;;;;;;13.30;55.67;99487.22;5103847;28;20016;-63
2022/05/28 07:03:24;;;;;;;1.27;0.40;;;;;;;13.82;56.51;99492.34;5103661;28;20691;-63
2022/05/28 07:05:50;;;;;;;0.55;0.50;;;;;;;14.38;55.42;99503.31;5104165;28;20055;-63
2022/05/28 07:08:16;;;;;;;1.33;0.60;;;;;;;14.88;54.44;99505.75;5103950;28;20059;-63
2022/05/28 07:10:44;;;;;;;3.28;0.80;;;;;;;15.24;52.69;99499.03;5103761;28;20039;-63
2022/05/28 07:13:10;;;;;;;0.70;0.43;;;;;;;15.29;50.27;99499.72;5103998;28;20043;-63
2022/05/28 07:15:35;;;;;;;1.95;0.60;;;;;;;15.35;50.46;99499.44;5103804;28;20224;-63
2022/05/28 07:18:01;;;;;;;1.65;0.70;;;;;;;15.62;50.49;99493.09;5103548;28;20050;-63
2022/05/28 07:20:26;;;;;;;2.60;0.70;;;;;;;16.31;48.26;99482.19;5103710;28;20016;-63
2022/05/28 07:22:52;;;;;;;2.42;0.60;;;;;;;16.92;48.65;99494.97;5103504;28;20058;-63
2022/05/28 07:25:17;;;;;;;1.52;0.50;;;;;;;17.83;48.61;99481.63;5103595;28;20495;-63
2022/05/28 07:27:42;;;;;;;0.77;0.50;;;;;;;18.68;46.98;99500.69;5103572;28;20051;-64
2022/05/28 07:30:09;;;;;;;0.60;0.40;;;;;;;19.48;45.00;99488.25;5103472;28;20292;-64
2022/05/28 07:32:34;;;;;;;2.53;0.70;;;;;;;20.09;42.51;99495.97;5103592;28;20057;-64
2022/05/28 07:35:00;;;;;;;1.45;0.50;;;;;;;20.34;41.67;99490.91;5103329;28;20024;-65
2022/05/28 07:37:27;;;;;;;1.15;0.65;;;;;;;20.64;39.96;99487.25;5103088;28;20024;-64
2022/05/28 07:39:53;;;;;;;0.68;0.43;;;;;;;20.61;38.93;99496.19;5103484;28;20020;-64
2022/05/28 07:42:18;;;;;;;1.17;0.60;;;;;;;20.06;37.41;99490.88;5103635;28;20402;-64
2022/05/28 07:44:44;;;;;;;0.98;0.47;;;;;;;19.74;37.49;99491.94;5103242;28;20073;-64
2022/05/28 07:47:09;;;;;;;4.68;0.60;;;;;;;19.37;38.72;99504.69;5103336;28;20055;-64
2022/05/28 07:49:36;;;;;;;1.88;0.63;;;;;;;19.49;38.80;99503.94;5102739;28;20032;-64
2022/05/28 07:52:02;;;;;;;1.15;0.40;;;;;;;19.85;37.97;99496.53;5103183;28;20021;-63
2022/05/28 07:54:28;;;;;;;1.63;0.50;;;;;;;19.94;36.94;99509.13;5102659;28;20102;-64
2022/05/28 07:56:53;;;;;;;0.77;0.50;;;;;;;20.07;36.71;99497.84;5102800;28;20069;-63
2022/05/28 07:59:19;;;;;;;0.85;0.40;;;;;;;20.56;37.99;99499.13;5102978;28;20127;-68
2022/05/28 08:01:44;;;;;;;1.95;0.52;;;;;;;21.03;35.52;99501.38;5103295;28;20012;-64
2022/05/28 08:04:11;;;;;;;0.65;0.50;;;;;;;21.33;36.54;99509.09;5102910;28;20031;-64
2022/05/28 08:06:37;;;;;;;1.90;0.60;;;;;;;21.57;33.70;99509.22;5103056;28;20035;-64
2022/05/28 08:09:05;;;;;;;7.50;0.50;;;;;;;21.50;34.05;99513.25;5102624;28;20079;-66
2022/05/28 08:11:31;;;;;;;1.70;0.40;;;;;;;21.81;34.55;99502.34;5103004;28;20111;-71
2022/05/28 08:13:57;;;;;;;0.52;0.40;;;;;;;22.56;34.08;99513.78;5102799;28;20341;-65
2022/05/28 08:16:23;;;;;;;1.63;0.80;;;;;;;23.21;32.54;99504.66;5102771;28;20020;-68
2022/05/28 08:18:48;;;;;;;1.48;0.65;;;;;;;23.18;32.12;99516.31;5102488;28;20453;-67
2022/05/28 08:23:58;;;;;;;2.45;0.57;;;;;;;22.31;30.77;99499.72;5102741;28;20078;-67
2022/05/28 08:26:24;;;;;;;1.50;0.70;;;;;;;21.76;31.14;99524.63;5102667;28;20028;-68
2022/05/28 08:28:51;;;;;;;1.77;0.45;;;;;;;20.76;32.62;99533.03;5084440;28;20291;-66
2022/05/28 08:31:18;;;;;;;0.90;0.60;;;;;;;20.12;34.16;99531.78;5102647;28;20017;-64
2022/05/28 08:33:43;;;;;;;1.00;0.50;;;;;;;20.20;34.67;99532.16;5102680;28;20078;-65
2022/05/28 08:36:10;;;;;;;0.98;0.50;;;;;;;19.54;34.48;99527.34;5102343;28;20031;-63
2022/05/28 08:38:37;;;;;;;1.10;0.65;;;;;;;18.78;35.45;99524.69;5102586;28;20023;-65
2022/05/28 08:41:12;;;;;;;0.70;0.40;;;;;;;18.07;36.62;99533.75;5102311;28;20019;-64
2022/05/28 08:43:49;;;;;;;1.63;0.73;;;;;;;17.80;37.43;99541.31;5084503;28;20028;-63
2022/05/28 08:46:16;;;;;;;1.20;0.60;;;;;;;17.71;38.16;99537.41;5102935;28;20081;-64
2022/05/28 08:48:54;;;;;;;1.42;0.63;;;;;;;18.24;37.54;99532.03;5103374;28;20468;-65
2022/05/28 08:51:42;;;;;;;1.00;0.70;;;;;;;19.00;37.40;99542.72;5106886;28;20044;-65
2022/05/28 08:54:21;;;;;;;2.20;0.70;;;;;;;20.05;37.21;99542.72;5106778;28;20048;-65
2022/05/28 08:56:49;;;;;;;1.25;0.60;;;;;;;20.90;35.64;99535.63;5106785;28;20022;-65
2022/05/28 08:59:20;;;;;;;0.40;0.40;;;;;;;21.51;33.35;99541.34;5106536;28;20020;-66
2022/05/28 09:01:46;;;;;;;15.38;1.15;;;;;;;21.50;33.83;99540.47;5106650;28;20019;-64
2022/05/28 09:04:16;;;;;;;2.03;0.60;;;;;;;21.75;32.62;99532.66;5106382;28;20048;-65
2022/05/28 09:06:49;;;;;;;0.90;0.50;;;;;;;21.15;31.71;99546.38;5106576;28;20042;-66
2022/05/28 09:09:16;;;;;;;1.77;0.80;;;;;;;20.62;32.94;99553.25;5106509;28;20016;-65
2022/05/28 09:12:02;;;;;;;1.42;0.70;;;;;;;20.21;33.21;99557.56;5106399;28;20086;-65
2022/05/28 09:14:34;;;;;;;1.80;0.50;;;;;;;19.50;34.66;99558.28;5106358;28;20027;-65
2022/05/28 09:17:21;;;;;;;1.63;0.60;;;;;;;19.17;35.60;99544.38;5106435;28;20024;-65
2022/05/28 09:19:48;;;;;;;0.60;0.50;;;;;;;19.22;35.94;99573.06;5106110;28;20032;-65
2022/05/28 09:22:13;;;;;;;0.63;0.50;;;;;;;19.05;35.58;99574.00;5106375;28;20027;-66
2022/05/28 09:24:40;;;;;;;1.30;0.63;;;;;;;19.28;35.69;99585.84;5106080;28;20027;-65
2022/05/28 09:27:38;;;;;;;1.73;0.57;;;;;;;20.04;36.00;99572.66;5106223;28;20016;-64
2022/05/28 09:30:35;;;;;;;0.80;0.73;;;;;;;20.33;35.15;99565.66;5105857;28;20089;-68
2022/05/28 09:33:11;;;;;;;1.17;0.55;;;;;;;20.19;33.94;99567.38;5087596;28;20024;-67
2022/05/28 09:35:43;;;;;;;0.80;0.57;;;;;;;19.52;34.94;99582.72;5105840;28;20021;-69
2022/05/28 09:38:53;;;;;;;1.65;0.85;;;;;;;18.97;35.66;99586.75;5105711;28;20024;-69
2022/05/28 09:41:18;;;;;;;1.33;0.70;;;;;;;18.44;36.75;99585.25;5104978;28;20016;-69
2022/05/28 09:43:53;;;;;;;1.58;0.50;;;;;;;18.26;37.37;99587.13;5087413;28;20123;-68
2022/05/28 09:46:27;;;;;;;3.65;0.65;;;;;;;17.97;38.15;99598.22;5105736;28;20016;-69
2022/05/28 09:49:12;;;;;;;1.08;0.77;;;;;;;17.90;38.88;99591.56;5105671;28;20050;-69
2022/05/28 09:51:38;;;;;;;1.38;0.52;;;;;;;17.91;38.17;99586.22;5105514;28;20036;-70
2022/05/28 09:54:23;;;;;;;1.20;0.60;;;;;;;17.79;38.50;99600.88;5105651;28;20097;-70
2022/05/28 09:57:03;;;;;;;1.05;0.73;;;;;;;17.39;39.17;99597.63;5105622;28;20469;-70
2022/05/28 09:59:32;;;;;;;2.75;0.60;;;;;;;17.19;39.57;99607.31;5104976;28;20515;-69
2022/05/28 10:02:10;;;;;;;0.82;0.65;;;;;;;17.07;40.26;99609.63;5105455;28;20020;-70
2022/05/28 10:04:52;;;;;;;1.85;0.60;;;;;;;17.25;40.02;99604.44;5086955;28;20028;-70
2022/05/28 10:07:40;;;;;;;2.38;0.63;;;;;;;17.22;39.87;99607.19;5105424;28;20024;-71
2022/05/28 10:10:32;;;;;;;0.70;0.57;;;;;;;17.04;40.19;99608.91;5105218;28;20036;-68
2022/05/28 10:13:18;;;;;;;1.10;0.87;;;;;;;16.78;40.58;99609.22;5105560;28;20016;-74
2022/05/28 10:15:49;;;;;;;1.65;0.75;;;;;;;16.72;41.05;99612.13;5105167;28;20024;-68
2022/05/28 10:18:22;;;;;;;1.05;0.80;;;;;;;16.56;40.72;99602.38;5105166;28;20031;-65
2022/05/28 10:21:28;;;;;;;1.88;1.55;;;;;;;16.53;41.14;99581.56;5105201;28;20019;-66
2022/05/28 10:23:57;;;;;;;1.45;0.90;;;;;;;16.26;41.56;99615.09;5090571;28;20107;-67
2022/05/28 10:26:48;;;;;;;3.22;0.93;;;;;;;16.05;41.98;99620.38;5086767;28;20020;-66
2022/05/28 10:29:23;;;;;;;1.17;0.98;;;;;;;15.72;42.41;99613.88;5104710;28;20032;-66
2022/05/28 10:31:50;;;;;;;1.20;0.80;;;;;;;15.48;42.95;99632.31;5104623;28;20048;-66
2022/05/28 10:34:32;;;;;;;1.52;0.80;;;;;;;15.21;43.78;99617.69;5104930;28;20107;-66
2022/05/28 10:37:09;;;;;;;0.95;0.70;;;;;;;14.98;44.18;99629.06;5104779;28;20028;-67
2022/05/28 10:39:37;;;;;;;1.67;1.02;;;;;;;14.76;45.13;99627.25;5104636;28;20057;-66
2022/05/28 10:42:03;;;;;;;2.25;0.80;;;;;;;14.68;45.62;99624.94;5104586;28;20377;-69
2022/05/28 10:44:28;;;;;;;1.05;0.93;;;;;;;14.77;45.43;99635.94;5086002;28;20053;-68
2022/05/28 10:47:00;;;;;;;3.55;0.68;;;;;;;14.71;45.31;99640.50;5104566;28;20028;-66
2022/05/28 10:49:54;;;;;;;1.42;0.80;;;;;;;14.61;45.80;99640.00;5104262;28;20467;-68
2022/05/28 10:52:41;;;;;;;0.77;0.73;;;;;;;14.61;45.88;99633.94;5101554;28;20052;-63
2022/05/28 10:55:11;;;;;;;1.25;0.90;;;;;;;14.56;46.06;99621.03;5104324;28;20075;-63
2022/05/28 10:57:59;;;;;;;1.52;0.93;;;;;;;14.51;46.57;99636.03;5104610;28;20016;-64
2022/05/28 11:00:57;;;;;;;1.27;0.80;;;;;;;14.70;46.58;99630.97;5104200;28;20016;-63
2022/05/28 11:03:40;;;;;;;1.63;0.75;;;;;;;14.86;46.21;99635.63;5001693;28;20038;-62
2022/05/28 11:06:13;;;;;;;1.20;0.90;;;;;;;15.07;46.56;99640.91;5001988;28;20065;-61
2022/05/28 11:09:05;;;;;;;1.40;0.70;;;;;;;15.43;46.13;99639.50;5002013;28;20034;-63
2022/05/28 11:11:34;;;;;;;2.92;1.02;;;;;;;15.88;45.18;99649.88;5001063;28;20053;-63
2022/05/28 11:14:16;;;;;;;1.50;0.88;;;;;;;16.25;44.80;99643.06;5001798;28;20038;-63
2022/05/28 11:17:08;;;;;;;3.50;0.60;;;;;;;16.57;42.83;99635.50;5001724;28;20041;-65
2022/05/28 11:20:15;;;;;;;3.15;0.80;;;;;;;16.37;42.47;99646.03;5001490;28;20038;-66
2022/05/28 11:23:13;;;;;;;1.00;0.55;;;;;;;16.15;42.93;99641.78;4962698;29;20074;-65
2022/05/28 11:25:50;;;;;;;1.48;0.70;;;;;;;16.18;43.27;99652.13;4962995;29;20034;-65
2022/05/28 11:28:15;;;;;;;0.95;0.63;;;;;;;16.17;43.05;99650.38;4962737;29;20102;-66
2022/05/28 11:30:45;;;;;;;1.02;0.57;;;;;;;16.22;43.09;99611.75;4962699;29;20050;-63
2022/05/28 11:33:31;;;;;;;0.70;0.60;;;;;;;16.31;43.10;99642.78;4962584;29;20035;-63
2022/05/28 11:36:27;;;;;;;2.63;0.80;;;;;;;16.52;42.85;99621.75;4962640;29;20181;-65
2022/05/28 11:39:06;;;;;;;0.68;0.57;;;;;;;16.53;42.38;99646.22;4962745;29;20032;-64
2022/05/28 11:41:36;;;;;;;1.50;0.70;;;;;;;16.38;42.67;99643.34;5060793;28;20044;-65
2022/05/28 11:44:13;;;;;;;1.00;0.70;;;;;;;16.38;43.46;99645.13;5060787;28;20028;-64
2022/05/28 11:46:59;;;;;;;1.20;0.70;;;;;;;16.64;43.32;99640.47;5060364;28;20063;-64
2022/05/28 11:52:37;;;;;;;1.98;0.70;;;;;;;17.48;43.08;99639.16;5060686;28;20043;-64
2022/05/28 11:55:12;;;;;;;1.80;0.88;;;;;;;17.79;42.58;99649.88;5060569;28;20059;-64
2022/05/28 11:57:41;;;;;;;1.90;0.73;;;;;;;18.02;42.62;99648.69;5060511;28;20024;-64